CheckWX is a tool to help pilots better visualize weather data.  It is not intended as a substitute for an official pre-flight weather briefing.

01:11:05 UTC

KHKA METAR
Blytheville Municipal Airport
Blytheville, Arkansas, USA
Current

18 mins ago

KHKA 170053Z AUTO 02006KT 5SM HZ CLR 03/00 A3017 RMK AO2 SLP217 T00280000 $
Observed
Nov-17 @ 00:53 UTC
Wind
  • 020° at 6 KTS
Visibility
5 SM
Flight Rules
MVFR
Conditions
Haze
Cloud Levels
  • Clear skies
Temperature
C / 37°F
Dewpoint
C / 32°F
Humidity
81%
Altimeter
30.17" Hg
Pressure
1021.72 hPa
Previous

1 hour ago

KHKA 162353Z AUTO 36006KT 6SM HZ CLR 03/00 A3017 RMK AO2 SLP219 T00280000 10128 20028 56006 $
Observed
Nov-16 @ 23:53 UTC
Wind
  • 360° at 6 KTS
Visibility
6 SM
Flight Rules
VFR
Conditions
Haze
Cloud Levels
  • Clear skies
Temperature
C / 37°F
Dewpoint
C / 32°F
Humidity
81%
Altimeter
30.17" Hg
Pressure
1021.72 hPa
Previous

2 hours ago

KHKA 162253Z AUTO 35006KT 6SM HZ CLR 07/02 A3017 RMK AO2 SLP220 T00670017 $
Observed
Nov-16 @ 22:53 UTC
Wind
  • 350° at 6 KTS
Visibility
6 SM
Flight Rules
VFR
Conditions
Haze
Cloud Levels
  • Clear skies
Temperature
C / 45°F
Dewpoint
C / 36°F
Humidity
71%
Altimeter
30.17" Hg
Pressure
1021.72 hPa